• Join FlightAware (Why Join?)
  • Login
  • US Flag 
12:19AM EST


 

Airport Tracker/Info


-or-


 

Live Flight TrackerFlight Track Log ✈ N81ER ✈ 03-May-2013 ✈ KLBF - KOAK

Flight Track Log - Related Links

Times and Time Zones

All times are in EDT time to prevent confusion due to time zone crossing. See the N81ER flight status page for this flight to view local times or setup timezone preferences in your user account.

Time Position Orientation Groundspeed Altitude Reporting Facility
EDT Latitude Longitude Course Direction KTS MPH feet Rate Location/Type
08:27PM 41.0625 -100.7303 257° West 246 283 8,400  Level Denver Center
08:28PM 41.0428 -100.8439 257° West 286 329 11,600 3,240 Climbing Denver Center
08:29PM 41.0339 -100.9386 263° West 277 319 15,100 2,520 Climbing Denver Center
08:36PM 40.9577 -101.6940 263° West 323 372 30,400 2,340 Climbing FlightAware ADS-B
08:36PM 40.9516 -101.7530 262° West 320 368 31,500 1,920 Climbing FlightAware ADS-B
08:37PM 40.9456 -101.8110 262° West 318 366 32,400 1,800 Climbing FlightAware ADS-B
08:37PM 40.9392 -101.8730 262° West 316 364 33,400 1,500 Climbing FlightAware ADS-B
08:38PM 40.9330 -101.9320 262° West 320 368 34,000 1,080 Climbing FlightAware ADS-B
08:38PM 40.9266 -101.9910 262° West 328 377 34,500 1,080 Climbing FlightAware ADS-B
08:39PM 40.9202 -102.0520 262° West 332 382 35,100 1,080 Climbing FlightAware ADS-B
08:39PM 40.9136 -102.1130 262° West 336 387 35,600 960 Climbing FlightAware ADS-B
08:40PM 40.9070 -102.1750 262° West 339 390 36,100 960 Climbing FlightAware ADS-B
08:40PM 40.9002 -102.2370 262° West 341 392 36,600 960 Climbing FlightAware ADS-B
08:41PM 40.8933 -102.3010 262° West 344 396 37,100 900 Climbing FlightAware ADS-B
08:41PM 40.8861 -102.3680 262° West 347 399 37,600 840 Climbing FlightAware ADS-B
08:42PM 40.8791 -102.4320 262° West 351 404 38,000 660 Climbing FlightAware ADS-B
08:42PM 40.8720 -102.4960 262° West 355 409 38,300 540 Climbing FlightAware ADS-B
08:43PM 40.8645 -102.5630 262° West 362 417 38,600 480 Climbing FlightAware ADS-B
08:43PM 40.8570 -102.6300 262° West 368 423 38,800 360 Climbing FlightAware ADS-B
08:44PM 40.8492 -102.6990 262° West 373 429 39,000 540 Climbing FlightAware ADS-B
08:44PM 40.8414 -102.7680 262° West 372 428 39,400 780 Climbing FlightAware ADS-B
08:45PM 40.8337 -102.8360 262° West 370 426 39,800 540 Climbing FlightAware ADS-B
08:45PM 40.8260 -102.9040 262° West 374 430 40,000 180 Climbing FlightAware ADS-B
08:46PM 40.8181 -102.9730 261° West 381 438 40,000  Level FlightAware ADS-B
08:46PM 40.8093 -103.0480 261° West 388 447 40,000  Level FlightAware ADS-B
08:47PM 40.8008 -103.1220 261° West 393 452 40,000  Level FlightAware ADS-B
08:47PM 40.7916 -103.2010 261° West 399 459 40,000  Level FlightAware ADS-B
08:48PM 40.7829 -103.2750 261° West 402 463 40,000  Level FlightAware ADS-B
08:48PM 40.7745 -103.3470 261° West 390 449 40,000  Level FlightAware ADS-B
08:49PM 40.7661 -103.4170 261° West 383 441 40,000 60 Level FlightAware ADS-B
08:50PM 40.7555 -103.5070 261° West 383 441 40,100 420 Climbing FlightAware ADS-B
08:50PM 40.7451 -103.5930 261° West 377 434 40,600 720 Climbing FlightAware ADS-B
08:51PM 40.7364 -103.6650 261° West 374 430 41,000 720 Climbing FlightAware ADS-B
08:51PM 40.7281 -103.7330 261° West 371 427 41,400 660 Climbing FlightAware ADS-B
08:52PM 40.7199 -103.8000 261° West 369 425 41,700 540 Climbing FlightAware ADS-B
08:52PM 40.7108 -103.8740 261° West 369 425 42,000 540 Climbing FlightAware ADS-B
08:53PM 40.7021 -103.9440 261° West 369 425 42,300 420 Climbing FlightAware ADS-B
08:53PM 40.6937 -104.0120 261° West 368 423 42,500 480 Climbing FlightAware ADS-B
08:54PM 40.6855 -104.0790 261° West 367 422 42,800 480 Climbing FlightAware ADS-B
08:54PM 40.6770 -104.1460 261° West 368 423 43,000 180 Climbing FlightAware ADS-B
08:55PM 40.6685 -104.2140 261° West 373 429 43,000  Level FlightAware ADS-B
08:55PM 40.6598 -104.2820 260° West 378 435 43,000  Level FlightAware ADS-B
08:56PM 40.6510 -104.3510 260° West 382 440 43,000  Level FlightAware ADS-B
08:56PM 40.6422 -104.4200 260° West 384 442 43,000  Level FlightAware ADS-B
08:57PM 40.6333 -104.4900 261° West 387 445 43,000  Level FlightAware ADS-B
08:57PM 40.6242 -104.5600 260° West 387 445 43,000  Level FlightAware ADS-B
08:58PM 40.6152 -104.6300 260° West 387 445 43,000  Level FlightAware ADS-B
08:58PM 40.6055 -104.7040 260° West 387 445 43,000  Level FlightAware ADS-B
08:59PM 40.5958 -104.7780 260° West 387 445 43,000  Level FlightAware ADS-B
08:59PM 40.5858 -104.8540 260° West 387 445 43,000  Level FlightAware ADS-B
09:00PM 40.5765 -104.9240 260° West 387 445 43,000  Level FlightAware ADS-B
09:00PM 40.5670 -104.9960 260° West 387 445 43,000  Level FlightAware ADS-B
09:01PM 40.5575 -105.0660 260° West 387 445 43,000  Level FlightAware ADS-B
09:02PM 40.5479 -105.1380 260° West 386 444 43,000  Level FlightAware ADS-B
09:02PM 40.5385 -105.2080 260° West 386 444 43,000  Level FlightAware ADS-B
09:03PM 40.5286 -105.2810 260° West 386 444 43,000  Level FlightAware ADS-B
09:03PM 40.5189 -105.3520 260° West 387 445 43,000  Level FlightAware ADS-B
09:04PM 40.5091 -105.4240 260° West 387 445 43,000  Level FlightAware ADS-B
09:04PM 40.4978 -105.5050 260° West 388 447 43,000  Level FlightAware ADS-B
09:05PM 40.4823 -105.6170 260° West 386 444 43,000  Level FlightAware ADS-B
09:05PM 40.4724 -105.6880 260° West 384 442 43,000  Level FlightAware ADS-B
09:06PM 40.4640 -105.7480 260° West 382 440 43,000  Level FlightAware
09:06PM 40.4608 -105.7710 260° West 384 442 43,000  Level FlightAware ADS-B
09:07PM 40.4504 -105.8450 260° West 382 440 43,000  Level FlightAware ADS-B
09:07PM 40.4400 -105.9180 259° West 383 441 43,000  Level FlightAware ADS-B
09:08PM 40.4269 -106.0110 260° West 382 440 43,000  Level FlightAware ADS-B
09:09PM 40.4090 -106.1370 259° West 379 436 43,000  Level FlightAware
09:09PM 40.4058 -106.1570 258° West 382 440 43,000  Level FlightAware ADS-B
09:09PM 40.3949 -106.2330 259° West 380 437 43,000  Level FlightAware ADS-B
09:10PM 40.3829 -106.3160 259° West 380 437 43,000  Level FlightAware ADS-B
09:11PM 40.3670 -106.4220 259° West 382 440 43,000  Level FlightAware
09:11PM 40.3629 -106.4520 260° West 383 441 43,000  Level FlightAware ADS-B
09:12PM 40.3478 -106.5550 259° West 383 441 43,000  Level FlightAware ADS-B
09:13PM 40.3342 -106.6470 259° West 382 440 43,000  Level FlightAware ADS-B
09:13PM 40.3164 -106.7660 259° West 380 437 43,000  Level FlightAware ADS-B
09:14PM 40.3046 -106.8450 259° West 381 438 43,000  Level FlightAware ADS-B
09:15PM 40.2923 -106.9260 259° West 381 438 43,000  Level FlightAware ADS-B
09:15PM 40.2800 -107.0080 259° West 381 438 43,000  Level FlightAware ADS-B
09:16PM 40.2695 -107.0770 259° West 381 438 43,000  Level FlightAware ADS-B
09:16PM 40.2573 -107.1570 259° West 379 436 43,000  Level FlightAware ADS-B
09:17PM 40.2457 -107.2320 259° West 379 436 43,000  Level FlightAware ADS-B
09:17PM 40.2340 -107.3070 258° West 381 438 43,000  Level FlightAware
09:18PM 40.2222 -107.3840 259° West 379 436 43,000  Level FlightAware ADS-B
09:19PM 40.2050 -107.4910 258° West 379 436 43,000  Level FlightAware
09:19PM 40.2024 -107.5110 260° West 379 436 43,000  Level FlightAware ADS-B
09:20PM 40.1900 -107.5870 258° West 379 436 43,000  Level FlightAware
09:20PM 40.1750 -107.6810 258° West 378 435 43,000  Level FlightAware
09:21PM 40.1620 -107.7660 259° West 379 436 43,000  Level FlightAware
09:22PM 40.1480 -107.8540 258° West 380 437 43,000  Level FlightAware
09:22PM 40.1300 -107.9670 258° West 378 435 43,000  Level FlightAware
09:23PM 40.1180 -108.0390 258° West 378 435 43,000  Level FlightAware
09:24PM 40.1030 -108.1320 258° West 377 434 43,000  Level FlightAware
09:25PM 40.0800 -108.2720 258° West 377 434 43,000  Level FlightAware
09:25PM 40.0640 -108.3700 258° West 378 435 43,000  Level FlightAware
09:26PM 40.0510 -108.4520 258° West 379 436 43,000  Level FlightAware
09:27PM 40.0270 -108.5940 258° West 380 437 43,000  Level FlightAware
09:28PM 40.0070 -108.7130 258° West 381 438 43,000  Level FlightAware
09:29PM 39.9920 -108.8020 258° West 382 440 43,000  Level FlightAware
09:29PM 39.9770 -108.8930 258° West 384 442 43,000  Level FlightAware
09:30PM 39.9600 -108.9940 258° West 385 443 43,000  Level FlightAware
09:31PM 39.9450 -109.0820 257° West 386 444 43,000  Level FlightAware
09:31PM 39.9270 -109.1840 257° West 384 442 43,000  Level FlightAware
09:32PM 39.9110 -109.2770 257° West 381 438 43,000  Level FlightAware
09:33PM 39.8910 -109.3950 258° West 377 434 43,000  Level FlightAware
09:34PM 39.8740 -109.4910 257° West 376 433 43,000  Level FlightAware
09:34PM 39.8570 -109.5850 257° West 375 432 43,000  Level FlightAware
09:35PM 39.8430 -109.6680 258° West 374 430 43,000  Level FlightAware
09:36PM 39.8250 -109.7680 257° West 373 429 43,000  Level FlightAware
09:37PM 39.8090 -109.8590 257° West 374 430 43,000  Level FlightAware
09:37PM 39.7890 -109.9630 256° West 375 432 43,000  Level FlightAware
09:38PM 39.7730 -110.0580 258° West 378 435 43,000  Level FlightAware
09:39PM 39.7490 -110.1880 257° West 378 435 43,000  Level FlightAware
09:40PM 39.7340 -110.2730 257° West 375 432 43,000  Level FlightAware
09:40PM 39.7170 -110.3610 256° West 375 432 43,000  Level FlightAware
09:41PM 39.7030 -110.4350 256° West 375 432 43,000  Level FlightAware
09:42PM 39.6890 -110.5100 256° West 375 432 43,000  Level FlightAware
09:43PM 39.6710 -110.6030 256° West 375 432 43,000  Level FlightAware
09:43PM 39.6560 -110.6770 255° West 375 432 43,000  Level FlightAware
09:44PM 39.6420 -110.7510 256° West 375 432 43,000  Level FlightAware
09:45PM 39.6280 -110.8260 256° West 375 432 43,000  Level FlightAware
09:45PM 39.6100 -110.9180 256° West 375 432 43,000  Level FlightAware
09:46PM 39.5960 -110.9930 256° West 375 432 43,000  Level FlightAware
09:47PM 39.5810 -111.0670 255° West 375 432 43,000  Level FlightAware
09:47PM 39.5670 -111.1410 256° West 375 432 43,000  Level FlightAware
09:48PM 39.5530 -111.2150 256° West 375 432 43,000  Level FlightAware
09:49PM 39.5350 -111.3080 256° West 375 432 43,000  Level FlightAware
09:50PM 39.5210 -111.3820 256° West 375 432 43,000  Level FlightAware
09:51PM 39.4675 -111.6844 256° West 381 438 43,000  Level Salt Lake Center
09:52PM 39.4417 -111.8167 256° West 380 437 43,000  Level Salt Lake Center
09:53PM 39.4169 -111.9464 256° West 373 429 43,000  Level Salt Lake Center
09:54PM 39.3850 -112.1039 255° West 377 434 43,000  Level Salt Lake Center
09:55PM 39.3583 -112.2322 255° West 374 430 43,000  Level Salt Lake Center
09:56PM 39.3325 -112.3611 256° West 371 427 43,000  Level Salt Lake Center
09:57PM 39.3061 -112.4894 255° West 370 426 43,000  Level Salt Lake Center
09:58PM 39.2794 -112.6164 255° West 368 423 43,000  Level Salt Lake Center
09:59PM 39.2469 -112.7575 253° West 366 421 43,000  Level Salt Lake Center
10:00PM 39.2203 -112.8803 254° West 361 415 43,000  Level Salt Lake Center
10:01PM 39.1911 -113.0067 253° West 367 422 43,000  Level Salt Lake Center
10:02PM 39.1636 -113.1303 254° West 363 418 43,000  Level Salt Lake Center
10:03PM 39.1353 -113.2550 254° West 364 419 43,000  Level Salt Lake Center
10:04PM 39.1089 -113.3819 255° West 367 422 43,000  Level Salt Lake Center
10:05PM 39.0858 -113.5078 257° West 365 420 43,000  Level Salt Lake Center
10:06PM 39.0572 -113.6639 257° West 373 429 43,000  Level Salt Lake Center
10:07PM 39.0336 -113.7917 257° West 371 427 43,000  Level Salt Lake Center
10:08PM 39.0089 -113.9222 256° West 376 433 43,000  Level Salt Lake Center
10:09PM 38.9842 -114.0561 257° West 385 443 43,000  Level Salt Lake Center
10:10PM 38.9586 -114.1911 256° West 389 448 43,000  Level Salt Lake Center
10:11PM 38.9336 -114.3250 257° West 388 447 43,000  Level Salt Lake Center
10:12PM 38.9075 -114.4564 256° West 383 441 43,000  Level Salt Lake Center
10:13PM 38.8856 -114.5775 257° West 355 409 43,000  Level Salt Lake Center
10:14PM 38.8567 -114.7275 256° West 361 415 43,000  Level Salt Lake Center
10:15PM 38.8314 -114.8558 256° West 371 427 43,000  Level Salt Lake Center
10:16PM 38.8058 -114.9836 256° West 372 428 43,000  Level Salt Lake Center
10:17PM 38.7781 -115.1169 255° West 383 441 43,000  Level Salt Lake Center
10:18PM 38.7500 -115.2506 255° West 390 449 43,000  Level Salt Lake Center
10:19PM 38.7258 -115.3778 256° West 382 440 43,000  Level Salt Lake Center
10:20PM 38.7000 -115.5094 256° West 380 437 43,000  Level Salt Lake Center
10:21PM 38.6672 -115.6667 255° West 382 440 43,000  Level Salt Lake Center
10:22PM 38.6403 -115.8003 256° West 387 445 43,000  Level Salt Lake Center
10:23PM 38.6133 -115.9333 256° West 387 445 43,000  Level Salt Lake Center
10:24PM 38.5858 -116.0669 255° West 389 448 43,000  Level Salt Lake Center
10:25PM 38.5575 -116.2011 255° West 391 450 43,000  Level Salt Lake Center
10:26PM 38.5531 -116.2286 258° West 393 452 43,000  Level Oakland Center
10:27PM 38.5192 -116.3881 255° West 390 449 43,000  Level Oakland Center
10:27PM 38.5019 -116.4683 255° West 390 449 43,000  Level Salt Lake Center
10:28PM 38.4742 -116.5992 255° West 385 443 43,000  Level Salt Lake Center
10:29PM 38.4639 -116.6519 256° West 385 443 43,000  Level Oakland Center
10:30PM 38.4367 -116.7819 255° West 382 440 43,000  Level Oakland Center
10:31PM 38.4078 -116.9139 254° West 387 445 43,000  Level Oakland Center
10:32PM 38.3800 -117.0450 255° West 387 445 43,000  Level Oakland Center
10:33PM 38.3519 -117.1711 254° West 386 444 43,000  Level Oakland Center
10:34PM 38.3239 -117.3036 255° West 387 445 43,000  Level Oakland Center
10:35PM 38.3089 -117.4397 262° West 389 448 43,000  Level Oakland Center
10:36PM 38.2889 -117.5989 261° West 384 442 43,000  Level Oakland Center
10:37PM 38.2725 -117.7322 261° West 383 441 43,000  Level Oakland Center
10:38PM 38.2550 -117.8642 260° West 381 438 43,000  Level Oakland Center
10:39PM 38.2386 -117.9981 261° West 382 440 43,000  Level Oakland Center
10:40PM 38.2211 -118.1339 261° West 379 436 43,000  Level Oakland Center
10:41PM 38.2031 -118.2675 260° West 381 438 43,000  Level Oakland Center
10:42PM 38.1856 -118.4019 261° West 385 443 43,000  Level Oakland Center
10:47PM 38.0860 -119.1470 261° West 388 447 43,000  Level FlightAware
10:48PM 38.0700 -119.2570 260° West 388 447 43,000 -300 Level FlightAware
10:49PM 38.0600 -119.3320 260° West 385 443 42,600 -1,500 Descending FlightAware
10:50PM 38.0460 -119.4360 260° West 345 397 40,900 -1,800 Descending FlightAware
10:50PM 38.0340 -119.5180 259° West 362 417 39,900 -1,680 Descending FlightAware
10:51PM 38.0210 -119.6110 260° West 328 377 38,600 -1,740 Descending FlightAware
10:52PM 38.0100 -119.6870 260° West 342 394 37,500 -1,740 Descending FlightAware
10:52PM 37.9980 -119.7670 259° West 342 394 36,300 -1,740 Descending FlightAware
10:53PM 37.9860 -119.8530 260° West 349 402 35,100 -1,680 Descending FlightAware
10:54PM 37.9740 -119.9370 260° West 362 417 34,000 -1,740 Descending FlightAware
10:55PM 37.9600 -120.0320 259° West 366 421 32,700 -1,800 Descending FlightAware
10:55PM 37.9480 -120.1160 260° West 370 426 31,500 -1,740 Descending FlightAware
10:56PM 37.9350 -120.2020 259° West 376 433 30,400 -1,680 Descending FlightAware
10:57PM 37.9210 -120.2980 260° West 381 438 29,200 -1,740 Descending FlightAware
10:57PM 37.9070 -120.3870 259° West 387 445 28,000 -1,740 Descending FlightAware
10:58PM 37.8930 -120.4790 259° West 379 436 26,900 -1,740 Descending FlightAware
10:59PM 37.8790 -120.5740 259° West 370 426 25,600 -1,740 Descending FlightAware
10:59PM 37.8670 -120.6580 260° West 369 425 24,500 -2,280 Descending FlightAware
11:00PM 37.8620 -120.7220 264° West 362 417 23,000 -3,300 Descending FlightAware
11:01PM 37.8570 -120.8030 266° West 358 412 20,700 -3,480 Descending FlightAware
11:01PM 37.8510 -120.8980 265° West 351 404 18,100 -3,060 Descending FlightAware
11:02PM 37.8460 -120.9770 265° West 340 391 16,400 -2,220 Descending FlightAware
11:03PM 37.8410 -121.0540 265° West 351 404 15,200 -1,920 Descending FlightAware
11:03PM 37.8340 -121.1530 265° West 346 398 13,700 -1,920 Descending FlightAware
11:04PM 37.8140 -121.2250 251° West 339 390 12,500 -1,320 Descending FlightAware
11:05PM 37.7930 -121.2860 246° West 336 387 12,100 -1,740 Descending FlightAware
11:05PM 37.7620 -121.3720 246° West 305 351 10,100 -2,100 Descending FlightAware
11:06PM 37.7490 -121.4080 245° Southwest 310 357 9,500 -1,560 Descending FlightAware
11:06PM 37.7300 -121.4640 247° West 303 349 8,700 -1,560 Descending FlightAware
11:07PM 37.7160 -121.5010 244° Southwest 296 341 8,100 -1,560 Descending FlightAware
11:08PM 37.6990 -121.5750 254° West 280 322 6,900 -1,560 Descending FlightAware
11:08PM 37.6940 -121.6230 263° West 276 318 6,200 -1,440 Descending FlightAware
11:08PM 37.6900 -121.6600 262° West 265 305 5,600 -1,500 Descending FlightAware
11:09PM 37.6870 -121.6890 263° West 258 297 5,100 -1,020 Descending FlightAware
11:10PM 37.6800 -121.7550 262° West 255 293 4,500 -900 Descending FlightAware
11:10PM 37.6780 -121.7880 266° West 221 254 4,100 -420 Descending FlightAware
11:11PM 37.6730 -121.8340 262° West 226 260 4,100  Level FlightAware
11:11PM 37.6700 -121.8600 262° West 199 229 4,100  Level FlightAware
11:12PM 37.6660 -121.9070 264° West 216 249 4,100  Level FlightAware
11:12PM 37.6620 -121.9380 261° West 219 252 4,100 -360 Level FlightAware
11:12PM 37.6590 -121.9760 264° West 203 234 3,800 -780 Descending FlightAware
11:13PM 37.6610 -122.0040 275° West 206 237 3,400 -1,020 Descending FlightAware
11:13PM 37.6710 -122.0390 290° West 204 235 2,900 -900 Descending FlightAware
11:14PM 37.6800 -122.0690 291° West 182 209 2,500 -900 Descending FlightAware
11:14PM 37.6880 -122.0940 292° West 169 194 2,100 -780 Descending FlightAware
11:15PM 37.6960 -122.1170 294° West 141 162 1,800 -480 Descending FlightAware
11:15PM 37.7010 -122.1330 292° West 129 148 1,700 -840 Descending FlightAware
11:16PM 37.6960 -122.1160 110° East 122 140 700 -780 Descending FlightAware
11:17PM 37.7010 -122.1300 294° West 122 140 700 -720 Level FlightAware
11:17PM 37.7167 -122.2000 294° West 108 124 100 28,320 Descending Northern Cal TRACON
11:18PM 37.7272 -122.2167 309° West 117 135 30,000 54,360 Climbing Oakland Center